WZZ92E LZIB-EPWA
Flight info
| Callsign | WZZ92E |
|---|---|
| Flight time | 0h 48m |
| Altitude | 23000 |
| Route | NIT M985 NIDOK/N0442F350 DCT MEBAN DCT ORTEB/N0443F360 DCT KONZI DCT LOGDA |
| Aircraft | A321/M-SDE3FGHIRWY/LB1 |
Departure
| Time | 2026-05-04 19:47 |
|---|---|
| Airport | M. R. Štefánik Airport (LZIB) |
Arrival
| Time | 2026-05-04 20:35 |
|---|---|
| Airport | Warsaw Chopin Airport (EPWA) |
| Time | Latitude | Longitude | Altitude | Speed | Heading |
|---|---|---|---|---|---|
| 2026-05-04 19:15 | 48.16914 | 17.20091 | 424 ft | 0 kts | 314° |
| 2026-05-04 19:38 | 48.16913 | 17.20093 | 432 ft | 2 kts | 314° |
| 2026-05-04 19:38 | 48.16896 | 17.20119 | 427 ft | 2 kts | 314° |
| 2026-05-04 19:38 | 48.16881 | 17.20137 | 422 ft | 4 kts | 356° |
| 2026-05-04 19:38 | 48.16858 | 17.20128 | 424 ft | 4 kts | 41° |
| 2026-05-04 19:39 | 48.16840 | 17.20102 | 420 ft | 4 kts | 44° |
| 2026-05-04 19:39 | 48.16824 | 17.20080 | 421 ft | 0 kts | 44° |
| 2026-05-04 19:41 | 48.16828 | 17.20086 | 420 ft | 4 kts | 44° |
| 2026-05-04 19:41 | 48.16866 | 17.20139 | 425 ft | 9 kts | 44° |
| 2026-05-04 19:41 | 48.16915 | 17.20211 | 428 ft | 11 kts | 44° |
| 2026-05-04 19:42 | 48.16973 | 17.20292 | 429 ft | 12 kts | 43° |
| 2026-05-04 19:42 | 48.17039 | 17.20384 | 427 ft | 14 kts | 44° |
| 2026-05-04 19:42 | 48.17084 | 17.20454 | 423 ft | 15 kts | 46° |
| 2026-05-04 19:42 | 48.17160 | 17.20559 | 421 ft | 15 kts | 26° |
| 2026-05-04 19:43 | 48.17248 | 17.20512 | 425 ft | 15 kts | 315° |
| 2026-05-04 19:43 | 48.17324 | 17.20405 | 427 ft | 16 kts | 317° |
| 2026-05-04 19:43 | 48.17396 | 17.20316 | 427 ft | 12 kts | 333° |
| 2026-05-04 19:43 | 48.17454 | 17.20303 | 431 ft | 0 kts | 4° |
| 2026-05-04 19:45 | 48.17484 | 17.20320 | 430 ft | 15 kts | 26° |
| 2026-05-04 19:46 | 48.17527 | 17.20461 | 417 ft | 15 kts | 127° |
| 2026-05-04 19:46 | 48.17392 | 17.20676 | 424 ft | 59 kts | 134° |
| 2026-05-04 19:46 | 48.16939 | 17.21378 | 426 ft | 125 kts | 134° |
| 2026-05-04 19:46 | 48.16213 | 17.22495 | 524 ft | 166 kts | 135° |
| 2026-05-04 19:47 | 48.15370 | 17.23721 | 1091 ft | 170 kts | 136° |
| 2026-05-04 19:47 | 48.14557 | 17.24979 | 1860 ft | 167 kts | 139° |
| 2026-05-04 19:47 | 48.13753 | 17.26241 | 2457 ft | 171 kts | 140° |
| 2026-05-04 19:47 | 48.12879 | 17.27603 | 2653 ft | 191 kts | 140° |
| 2026-05-04 19:48 | 48.12031 | 17.29277 | 2771 ft | 218 kts | 119° |
| 2026-05-04 19:48 | 48.11919 | 17.31701 | 2884 ft | 259 kts | 82° |
| 2026-05-04 19:48 | 48.12506 | 17.34383 | 3358 ft | 277 kts | 73° |
| 2026-05-04 19:48 | 48.13338 | 17.37021 | 4072 ft | 286 kts | 57° |
| 2026-05-04 19:49 | 48.14637 | 17.39309 | 4856 ft | 290 kts | 49° |
| 2026-05-04 19:49 | 48.15988 | 17.41554 | 5687 ft | 291 kts | 49° |
| 2026-05-04 19:49 | 48.17352 | 17.43799 | 6539 ft | 291 kts | 48° |
| 2026-05-04 19:49 | 48.18720 | 17.46047 | 7288 ft | 293 kts | 49° |
| 2026-05-04 19:50 | 48.20095 | 17.48320 | 8021 ft | 296 kts | 49° |
| 2026-05-04 19:50 | 48.21485 | 17.50618 | 8762 ft | 299 kts | 49° |
| 2026-05-04 19:50 | 48.22888 | 17.52942 | 9493 ft | 303 kts | 49° |
| 2026-05-04 19:50 | 48.24311 | 17.55302 | 10169 ft | 309 kts | 49° |
| 2026-05-04 19:51 | 48.25803 | 17.57786 | 10358 ft | 332 kts | 49° |
| 2026-05-04 19:51 | 48.27403 | 17.60450 | 10513 ft | 354 kts | 49° |
| 2026-05-04 19:51 | 48.29077 | 17.63234 | 10971 ft | 364 kts | 49° |
| 2026-05-04 19:51 | 48.30785 | 17.66073 | 11592 ft | 368 kts | 49° |
| 2026-05-04 19:52 | 48.32511 | 17.68943 | 12251 ft | 372 kts | 49° |
| 2026-05-04 19:52 | 48.34249 | 17.71842 | 12895 ft | 376 kts | 49° |
| 2026-05-04 19:52 | 48.36005 | 17.74784 | 13553 ft | 379 kts | 49° |
| 2026-05-04 19:52 | 48.37774 | 17.77747 | 14173 ft | 383 kts | 49° |
| 2026-05-04 19:53 | 48.39563 | 17.80747 | 14797 ft | 386 kts | 49° |
| 2026-05-04 19:53 | 48.41363 | 17.83767 | 15411 ft | 388 kts | 49° |
| 2026-05-04 19:53 | 48.43168 | 17.86797 | 16039 ft | 391 kts | 49° |
| 2026-05-04 19:53 | 48.44997 | 17.89873 | 16661 ft | 394 kts | 49° |
| 2026-05-04 19:54 | 48.46829 | 17.92959 | 17279 ft | 397 kts | 48° |
| 2026-05-04 19:54 | 48.48649 | 17.96028 | 17891 ft | 399 kts | 48° |
| 2026-05-04 19:54 | 48.50511 | 17.99171 | 18480 ft | 402 kts | 48° |
| 2026-05-04 19:54 | 48.52377 | 18.02324 | 19012 ft | 405 kts | 48° |
| 2026-05-04 19:55 | 48.54259 | 18.05506 | 19560 ft | 407 kts | 48° |
| 2026-05-04 19:55 | 48.56146 | 18.08697 | 20117 ft | 409 kts | 48° |
| 2026-05-04 19:55 | 48.58044 | 18.11916 | 20677 ft | 411 kts | 48° |
| 2026-05-04 19:55 | 48.59951 | 18.15151 | 21232 ft | 414 kts | 48° |
| 2026-05-04 19:56 | 48.61870 | 18.18413 | 21761 ft | 416 kts | 47° |
| 2026-05-04 19:56 | 48.63799 | 18.21695 | 22288 ft | 418 kts | 47° |
| 2026-05-04 19:56 | 48.65734 | 18.24991 | 22797 ft | 420 kts | 47° |
| 2026-05-04 19:56 | 48.67682 | 18.28312 | 23287 ft | 423 kts | 47° |
| 2026-05-04 19:57 | 48.69640 | 18.31658 | 23744 ft | 425 kts | 47° |
| 2026-05-04 19:57 | 48.71603 | 18.35018 | 24143 ft | 428 kts | 47° |
| 2026-05-04 19:57 | 48.73578 | 18.38404 | 24541 ft | 430 kts | 47° |
| 2026-05-04 19:57 | 48.75561 | 18.41805 | 24939 ft | 432 kts | 47° |
| 2026-05-04 19:58 | 48.77556 | 18.45226 | 25321 ft | 434 kts | 47° |
| 2026-05-04 19:58 | 48.79557 | 18.48665 | 25709 ft | 436 kts | 47° |
| 2026-05-04 19:58 | 48.81569 | 18.52132 | 26088 ft | 439 kts | 47° |
| 2026-05-04 19:58 | 48.83591 | 18.55621 | 26476 ft | 441 kts | 47° |
| 2026-05-04 19:59 | 48.85618 | 18.59123 | 26859 ft | 443 kts | 47° |
| 2026-05-04 19:59 | 48.87662 | 18.62653 | 27215 ft | 445 kts | 47° |
| 2026-05-04 19:59 | 48.89711 | 18.66193 | 27577 ft | 447 kts | 47° |
| 2026-05-04 19:59 | 48.91767 | 18.69755 | 27941 ft | 450 kts | 47° |
| 2026-05-04 20:00 | 48.93833 | 18.73346 | 28289 ft | 452 kts | 47° |
| 2026-05-04 20:00 | 48.95907 | 18.76955 | 28622 ft | 454 kts | 47° |
| 2026-05-04 20:00 | 48.97985 | 18.80577 | 28958 ft | 456 kts | 47° |
| 2026-05-04 20:00 | 49.00076 | 18.84222 | 29292 ft | 458 kts | 47° |
| 2026-05-04 20:01 | 49.02177 | 18.87888 | 29626 ft | 460 kts | 47° |
| 2026-05-04 20:01 | 49.04288 | 18.91578 | 29983 ft | 463 kts | 47° |
| 2026-05-04 20:01 | 49.06406 | 18.95288 | 30292 ft | 464 kts | 47° |
| 2026-05-04 20:01 | 49.08523 | 18.98999 | 30697 ft | 463 kts | 47° |
| 2026-05-04 20:02 | 49.10638 | 19.02698 | 31101 ft | 462 kts | 45° |
| 2026-05-04 20:02 | 49.13040 | 19.05897 | 31481 ft | 457 kts | 31° |
| 2026-05-04 20:02 | 49.15827 | 19.08164 | 31842 ft | 454 kts | 24° |
| 2026-05-04 20:02 | 49.18681 | 19.10236 | 32232 ft | 453 kts | 23° |
| 2026-05-04 20:03 | 49.21536 | 19.12298 | 32632 ft | 452 kts | 23° |
| 2026-05-04 20:03 | 49.24374 | 19.14345 | 33029 ft | 451 kts | 23° |
| 2026-05-04 20:03 | 49.27213 | 19.16393 | 33425 ft | 450 kts | 23° |
| 2026-05-04 20:03 | 49.30045 | 19.18442 | 33818 ft | 449 kts | 23° |
| 2026-05-04 20:04 | 49.32866 | 19.20487 | 34183 ft | 448 kts | 23° |
| 2026-05-04 20:04 | 49.35685 | 19.22535 | 34500 ft | 448 kts | 23° |
| 2026-05-04 20:04 | 49.38490 | 19.24578 | 34789 ft | 447 kts | 24° |
| 2026-05-04 20:04 | 49.41308 | 19.26636 | 35000 ft | 448 kts | 24° |
| 2026-05-04 20:05 | 49.44118 | 19.28691 | 35038 ft | 446 kts | 23° |
| 2026-05-04 20:05 | 49.49702 | 19.32778 | 35042 ft | 444 kts | 23° |
| 2026-05-04 20:06 | 49.55278 | 19.36864 | 35039 ft | 444 kts | 23° |
| 2026-05-04 20:06 | 49.60850 | 19.40956 | 35037 ft | 444 kts | 24° |
| 2026-05-04 20:07 | 49.66428 | 19.45065 | 35031 ft | 444 kts | 24° |
| 2026-05-04 20:07 | 49.72004 | 19.49188 | 35024 ft | 445 kts | 24° |
| 2026-05-04 20:08 | 49.77583 | 19.53333 | 35030 ft | 445 kts | 24° |
| 2026-05-04 20:08 | 49.83166 | 19.57489 | 35025 ft | 445 kts | 24° |
| 2026-05-04 20:09 | 49.88737 | 19.61641 | 35027 ft | 445 kts | 24° |
| 2026-05-04 20:09 | 49.94322 | 19.65825 | 35021 ft | 444 kts | 24° |
| 2026-05-04 20:10 | 49.99887 | 19.69993 | 35018 ft | 444 kts | 24° |
| 2026-05-04 20:10 | 50.05456 | 19.74173 | 35016 ft | 444 kts | 24° |
| 2026-05-04 20:11 | 50.11024 | 19.78351 | 35016 ft | 444 kts | 24° |
| 2026-05-04 20:11 | 50.16556 | 19.82519 | 35018 ft | 444 kts | 24° |
| 2026-05-04 20:12 | 50.22122 | 19.86731 | 35013 ft | 445 kts | 24° |
| 2026-05-04 20:12 | 50.27721 | 19.90992 | 35012 ft | 445 kts | 24° |
| 2026-05-04 20:13 | 50.33289 | 19.95234 | 35008 ft | 445 kts | 24° |
| 2026-05-04 20:13 | 50.38853 | 19.99477 | 35002 ft | 445 kts | 24° |
| 2026-05-04 20:14 | 50.44381 | 20.03709 | 35002 ft | 445 kts | 24° |
| 2026-05-04 20:14 | 50.49975 | 20.07984 | 34443 ft | 452 kts | 24° |
| 2026-05-04 20:14 | 50.52820 | 20.10163 | 33519 ft | 443 kts | 24° |
| 2026-05-04 20:15 | 50.55547 | 20.12265 | 32704 ft | 431 kts | 24° |
| 2026-05-04 20:15 | 50.58199 | 20.14317 | 31890 ft | 420 kts | 24° |
| 2026-05-04 20:15 | 50.60805 | 20.16332 | 31029 ft | 413 kts | 24° |
| 2026-05-04 20:15 | 50.63383 | 20.18320 | 30574 ft | 416 kts | 24° |
| 2026-05-04 20:16 | 50.66007 | 20.20338 | 30110 ft | 423 kts | 24° |
| 2026-05-04 20:16 | 50.68680 | 20.22399 | 29594 ft | 431 kts | 24° |
| 2026-05-04 20:16 | 50.71361 | 20.24477 | 29052 ft | 428 kts | 24° |
| 2026-05-04 20:16 | 50.74026 | 20.26549 | 28521 ft | 426 kts | 24° |
| 2026-05-04 20:17 | 50.76639 | 20.28588 | 28030 ft | 423 kts | 24° |
| 2026-05-04 20:17 | 50.79300 | 20.30665 | 27516 ft | 420 kts | 24° |
| 2026-05-04 20:17 | 50.81916 | 20.32705 | 27015 ft | 417 kts | 24° |
| 2026-05-04 20:17 | 50.84509 | 20.34729 | 26530 ft | 415 kts | 24° |
| 2026-05-04 20:18 | 50.87091 | 20.36745 | 26053 ft | 412 kts | 24° |
| 2026-05-04 20:18 | 50.89658 | 20.38749 | 25584 ft | 410 kts | 24° |
| 2026-05-04 20:18 | 50.92208 | 20.40741 | 25122 ft | 408 kts | 24° |
| 2026-05-04 20:18 | 50.94754 | 20.42733 | 24663 ft | 406 kts | 24° |
| 2026-05-04 20:19 | 50.97282 | 20.44713 | 24212 ft | 405 kts | 24° |
| 2026-05-04 20:19 | 50.99796 | 20.46688 | 23777 ft | 403 kts | 24° |
| 2026-05-04 20:19 | 51.02303 | 20.48661 | 23286 ft | 401 kts | 24° |
| 2026-05-04 20:19 | 51.04805 | 20.50633 | 22772 ft | 400 kts | 24° |
| 2026-05-04 20:20 | 51.07294 | 20.52598 | 22264 ft | 399 kts | 24° |
| 2026-05-04 20:20 | 51.09769 | 20.54555 | 21761 ft | 397 kts | 24° |
| 2026-05-04 20:20 | 51.11403 | 20.55848 | 21433 ft | 396 kts | 24° |
| 2026-05-04 20:20 | 51.13861 | 20.57794 | 20950 ft | 394 kts | 24° |
| 2026-05-04 20:21 | 51.16313 | 20.59741 | 20466 ft | 392 kts | 24° |
| 2026-05-04 20:21 | 51.18748 | 20.61676 | 19993 ft | 390 kts | 24° |
| 2026-05-04 20:21 | 51.23577 | 20.65508 | 19074 ft | 386 kts | 24° |
| 2026-05-04 20:22 | 51.25973 | 20.67415 | 18654 ft | 383 kts | 24° |
| 2026-05-04 20:22 | 51.28364 | 20.69273 | 18430 ft | 382 kts | 20° |
| 2026-05-04 20:22 | 51.30863 | 20.70681 | 18188 ft | 381 kts | 15° |
| 2026-05-04 20:22 | 51.33374 | 20.72016 | 17924 ft | 380 kts | 15° |
| 2026-05-04 20:23 | 51.35873 | 20.73352 | 17663 ft | 378 kts | 15° |
| 2026-05-04 20:23 | 51.38364 | 20.74684 | 17328 ft | 377 kts | 15° |
| 2026-05-04 20:23 | 51.40845 | 20.76012 | 16928 ft | 374 kts | 15° |
| 2026-05-04 20:23 | 51.43301 | 20.77333 | 16520 ft | 372 kts | 15° |
| 2026-05-04 20:24 | 51.45749 | 20.78650 | 16137 ft | 370 kts | 15° |
| 2026-05-04 20:24 | 51.48191 | 20.79970 | 15500 ft | 373 kts | 16° |
| 2026-05-04 20:24 | 51.50652 | 20.81324 | 14787 ft | 368 kts | 16° |
| 2026-05-04 20:24 | 51.53049 | 20.82665 | 13866 ft | 362 kts | 16° |
| 2026-05-04 20:25 | 51.55408 | 20.83995 | 12846 ft | 357 kts | 16° |
| 2026-05-04 20:25 | 51.57739 | 20.85311 | 11871 ft | 352 kts | 16° |
| 2026-05-04 20:25 | 51.60027 | 20.86607 | 10937 ft | 346 kts | 16° |
| 2026-05-04 20:25 | 51.62278 | 20.87876 | 10213 ft | 336 kts | 16° |
| 2026-05-04 20:26 | 51.64400 | 20.89074 | 9886 ft | 314 kts | 16° |
| 2026-05-04 20:26 | 51.66409 | 20.90213 | 9703 ft | 303 kts | 16° |
| 2026-05-04 20:26 | 51.68406 | 20.91338 | 9569 ft | 306 kts | 16° |
| 2026-05-04 20:26 | 51.70409 | 20.92464 | 9354 ft | 305 kts | 16° |
| 2026-05-04 20:27 | 51.72426 | 20.93594 | 8903 ft | 307 kts | 16° |
| 2026-05-04 20:27 | 51.74429 | 20.94716 | 8470 ft | 307 kts | 16° |
| 2026-05-04 20:27 | 51.76393 | 20.95821 | 8193 ft | 303 kts | 17° |
| 2026-05-04 20:27 | 51.78330 | 20.96917 | 7818 ft | 302 kts | 17° |
| 2026-05-04 20:28 | 51.80307 | 20.98040 | 7440 ft | 301 kts | 17° |
| 2026-05-04 20:28 | 51.82276 | 20.99158 | 7085 ft | 300 kts | 17° |
| 2026-05-04 20:28 | 51.84240 | 21.00275 | 6734 ft | 299 kts | 17° |
| 2026-05-04 20:28 | 51.86202 | 21.01389 | 6388 ft | 297 kts | 17° |
| 2026-05-04 20:29 | 51.88148 | 21.02492 | 6032 ft | 296 kts | 17° |
| 2026-05-04 20:29 | 51.90084 | 21.03595 | 5693 ft | 294 kts | 17° |
| 2026-05-04 20:29 | 51.92008 | 21.04693 | 5354 ft | 292 kts | 17° |
| 2026-05-04 20:29 | 51.93933 | 21.05792 | 4762 ft | 299 kts | 17° |
| 2026-05-04 20:30 | 51.95899 | 21.06913 | 3994 ft | 297 kts | 17° |
| 2026-05-04 20:30 | 51.97783 | 21.07996 | 3710 ft | 275 kts | 17° |
| 2026-05-04 20:30 | 51.99520 | 21.08961 | 3590 ft | 255 kts | 11° |
| 2026-05-04 20:30 | 52.01224 | 21.09230 | 3389 ft | 240 kts | 352° |
| 2026-05-04 20:31 | 52.02801 | 21.08651 | 3125 ft | 225 kts | 334° |
| 2026-05-04 20:31 | 52.04108 | 21.07571 | 2866 ft | 196 kts | 328° |
| 2026-05-04 20:31 | 52.05238 | 21.06594 | 2631 ft | 174 kts | 328° |
| 2026-05-04 20:31 | 52.06270 | 21.05697 | 2400 ft | 164 kts | 328° |
| 2026-05-04 20:32 | 52.07264 | 21.04830 | 2189 ft | 161 kts | 328° |
| 2026-05-04 20:32 | 52.08232 | 21.03989 | 2002 ft | 153 kts | 328° |
| 2026-05-04 20:32 | 52.09152 | 21.03188 | 1785 ft | 148 kts | 328° |
| 2026-05-04 20:32 | 52.10051 | 21.02404 | 1595 ft | 146 kts | 328° |
| 2026-05-04 20:33 | 52.10943 | 21.01627 | 1403 ft | 145 kts | 328° |
| 2026-05-04 20:33 | 52.11830 | 21.00854 | 1209 ft | 144 kts | 329° |
| 2026-05-04 20:33 | 52.12717 | 21.00076 | 1018 ft | 146 kts | 330° |
| 2026-05-04 20:33 | 52.13607 | 20.99290 | 796 ft | 146 kts | 331° |
| 2026-05-04 20:34 | 52.14499 | 20.98523 | 616 ft | 145 kts | 331° |
| 2026-05-04 20:34 | 52.15390 | 20.97743 | 422 ft | 145 kts | 330° |
| 2026-05-04 20:34 | 52.16242 | 20.97004 | 338 ft | 126 kts | 330° |
| 2026-05-04 20:34 | 52.16871 | 20.96453 | 336 ft | 78 kts | 332° |
| 2026-05-04 20:35 | 52.17159 | 20.96249 | 335 ft | 36 kts | 354° |
| 2026-05-04 20:35 | 52.17323 | 20.96243 | 334 ft | 14 kts | 2° |
| 2026-05-04 20:35 | 52.17379 | 20.96265 | 336 ft | 0 kts | 31° |
| 2026-05-04 20:36 | 52.17382 | 20.96269 | 339 ft | 2 kts | 37° |
| 2026-05-04 20:36 | 52.17404 | 20.96313 | 336 ft | 6 kts | 56° |
| 2026-05-04 20:37 | 52.17428 | 20.96383 | 337 ft | 8 kts | 61° |
| 2026-05-04 20:37 | 52.17454 | 20.96462 | 336 ft | 9 kts | 63° |
| 2026-05-04 20:37 | 52.17454 | 20.96564 | 339 ft | 10 kts | 125° |
| 2026-05-04 20:37 | 52.17396 | 20.96630 | 336 ft | 11 kts | 153° |
| 2026-05-04 20:38 | 52.17322 | 20.96693 | 337 ft | 13 kts | 151° |
| 2026-05-04 20:38 | 52.17247 | 20.96762 | 337 ft | 0 kts | 151° |
| 2026-05-04 20:38 | 52.17244 | 20.96765 | 337 ft | 1 kts | 152° |
| 2026-05-04 20:38 | 52.17231 | 20.96776 | 336 ft | 2 kts | 152° |
| 2026-05-04 20:39 | 52.17217 | 20.96788 | 337 ft | 3 kts | 152° |
| 2026-05-04 20:39 | 52.17192 | 20.96809 | 335 ft | 5 kts | 152° |
| 2026-05-04 20:39 | 52.17146 | 20.96850 | 336 ft | 9 kts | 151° |
| 2026-05-04 20:39 | 52.17107 | 20.96870 | 338 ft | 3 kts | 191° |
| 2026-05-04 20:40 | 52.17088 | 20.96822 | 338 ft | 8 kts | 260° |
| 2026-05-04 20:40 | 52.17089 | 20.96769 | 339 ft | 0 kts | 274° |